Aviation Digital Data Service (ADDS)

Output produced by METARs form (1325 UTC 23 January 2019)
found at http://www.aviationweather.gov/metar/data/
 
METAR text: DIAP 231300Z 25009KT 9000 -RA SCT013 BKN030 30/26 Q1011 TEMPO 4000 RA
Conditions at: DIAP (ABIDJAN/PORT BOU, CI) observed 1300 UTC 23 January 2019
Temperature: 30.0°C (86°F)
Dewpoint: 26.0°C (79°F) [RH = 79%]
Pressure (altimeter): 29.85 inches Hg (1011.0 mb)
Winds: from the WSW (250 degrees) at 10 MPH (9 knots; 4.6 m/s)
Visibility: 6 miles ( 9 km)
Ceiling: 3000 feet AGL
Clouds: scattered clouds at 1300 feet AGL
broken clouds at 3000 feet AGL
Weather: -RA  (light rain)

METAR text: DIAP 231230Z 24007KT 210V280 9999 SCT013 BKN028 31/24 Q1012 NOSIG
Conditions at: DIAP (ABIDJAN/PORT BOU, CI) observed 1230 UTC 23 January 2019
Temperature: 31.0°C (88°F)
Dewpoint: 24.0°C (75°F) [RH = 66%]
Pressure (altimeter): 29.88 inches Hg (1012.0 mb)
Winds: from the WSW (240 degrees) at 8 MPH (7 knots; 3.6 m/s)
Visibility: 6 or more miles (10+ km)
Ceiling: 2800 feet AGL
Clouds: scattered clouds at 1300 feet AGL
broken clouds at 2800 feet AGL
Weather: no significant weather observed at this time

METAR text: DIAP 231200Z 25006KT 180V310 9999 FEW013 SCT025 31/25 Q1012 NOSIG
Conditions at: DIAP (ABIDJAN/PORT BOU, CI) observed 1200 UTC 23 January 2019
Temperature: 31.0°C (88°F)
Dewpoint: 25.0°C (77°F) [RH = 71%]
Pressure (altimeter): 29.88 inches Hg (1012.0 mb)
Winds: from the WSW (250 degrees) at 7 MPH (6 knots; 3.1 m/s)
Visibility: 6 or more miles (10+ km)
Ceiling: at least 12,000 feet AGL
Clouds: few clouds at 1300 feet AGL
scattered clouds at 2500 feet AGL
Weather: no significant weather observed at this time

METAR text: DIAP 231130Z 26007KT 230V290 9000 FEW015 31/25 Q1012 NOSIG
Conditions at: DIAP (ABIDJAN/PORT BOU, CI) observed 1130 UTC 23 January 2019
Temperature: 31.0°C (88°F)
Dewpoint: 25.0°C (77°F) [RH = 71%]
Pressure (altimeter): 29.88 inches Hg (1012.0 mb)
Winds: from the W (260 degrees) at 8 MPH (7 knots; 3.6 m/s)
Visibility: 6 miles ( 9 km)
Ceiling: at least 12,000 feet AGL
Clouds: few clouds at 1500 feet AGL
Weather: no significant weather observed at this time

METAR text: DIAP 231100Z 28005KT 220V350 9000 SCT020 31/25 Q1013 NOSIG
Conditions at: DIAP (ABIDJAN/PORT BOU, CI) observed 1100 UTC 23 January 2019
Temperature: 31.0°C (88°F)
Dewpoint: 25.0°C (77°F) [RH = 71%]
Pressure (altimeter): 29.91 inches Hg (1013.0 mb)
Winds: from the W (280 degrees) at 6 MPH (5 knots; 2.6 m/s)
Visibility: 6 miles ( 9 km)
Ceiling: at least 12,000 feet AGL
Clouds: scattered clouds at 2000 feet AGL
Weather: no significant weather observed at this time

METAR text: DIAP 231030Z 27006KT 8000 SCT012 30/25 Q1013 NOSIG
Conditions at: DIAP (ABIDJAN/PORT BOU, CI) observed 1030 UTC 23 January 2019
Temperature: 30.0°C (86°F)
Dewpoint: 25.0°C (77°F) [RH = 75%]
Pressure (altimeter): 29.91 inches Hg (1013.0 mb)
Winds: from the W (270 degrees) at 7 MPH (6 knots; 3.1 m/s)
Visibility: 5 miles ( 8 km)
Ceiling: at least 12,000 feet AGL
Clouds: scattered clouds at 1200 feet AGL
Weather: no significant weather observed at this time

METAR text: DIAP 231000Z 26007KT 8000 SCT012 30/26 Q1013 NOSIG
Conditions at: DIAP (ABIDJAN/PORT BOU, CI) observed 1000 UTC 23 January 2019
Temperature: 30.0°C (86°F)
Dewpoint: 26.0°C (79°F) [RH = 79%]
Pressure (altimeter): 29.91 inches Hg (1013.0 mb)
Winds: from the W (260 degrees) at 8 MPH (7 knots; 3.6 m/s)
Visibility: 5 miles ( 8 km)
Ceiling: at least 12,000 feet AGL
Clouds: scattered clouds at 1200 feet AGL
Weather: no significant weather observed at this time

METAR text: DIAP 230930Z 27007KT 8000 SCT012 29/26 Q1012 NOSIG
Conditions at: DIAP (ABIDJAN/PORT BOU, CI) observed 0930 UTC 23 January 2019
Temperature: 29.0°C (84°F)
Dewpoint: 26.0°C (79°F) [RH = 84%]
Pressure (altimeter): 29.88 inches Hg (1012.0 mb)
Winds: from the W (270 degrees) at 8 MPH (7 knots; 3.6 m/s)
Visibility: 5 miles ( 8 km)
Ceiling: at least 12,000 feet AGL
Clouds: scattered clouds at 1200 feet AGL
Weather: no significant weather observed at this time

METAR text: DIAP 230900Z 27007KT 240V310 8000 SCT012 SCT016 29/26 Q1012 NOSIG
Conditions at: DIAP (ABIDJAN/PORT BOU, CI) observed 0900 UTC 23 January 2019
Temperature: 29.0°C (84°F)
Dewpoint: 26.0°C (79°F) [RH = 84%]
Pressure (altimeter): 29.88 inches Hg (1012.0 mb)
Winds: from the W (270 degrees) at 8 MPH (7 knots; 3.6 m/s)
Visibility: 5 miles ( 8 km)
Ceiling: at least 12,000 feet AGL
Clouds: scattered clouds at 1200 feet AGL
scattered clouds at 1600 feet AGL
Weather: no significant weather observed at this time

METAR text: DIAP 230830Z 30005KT 8000 FEW012 28/26 Q1012 NOSIG
Conditions at: DIAP (ABIDJAN/PORT BOU, CI) observed 0830 UTC 23 January 2019
Temperature: 28.0°C (82°F)
Dewpoint: 26.0°C (79°F) [RH = 89%]
Pressure (altimeter): 29.88 inches Hg (1012.0 mb)
Winds: from the WNW (300 degrees) at 6 MPH (5 knots; 2.6 m/s)
Visibility: 5 miles ( 8 km)
Ceiling: at least 12,000 feet AGL
Clouds: few clouds at 1200 feet AGL
Weather: no significant weather observed at this time

METAR text: DIAP 230800Z 27003KT 250V310 7000 SCT010 28/26 Q1012 NOSIG
Conditions at: DIAP (ABIDJAN/PORT BOU, CI) observed 0800 UTC 23 January 2019
Temperature: 28.0°C (82°F)
Dewpoint: 26.0°C (79°F) [RH = 89%]
Pressure (altimeter): 29.88 inches Hg (1012.0 mb)
Winds: from the W (270 degrees) at 3 MPH (3 knots; 1.5 m/s)
Visibility: 4 miles ( 7 km)
Ceiling: at least 12,000 feet AGL
Clouds: scattered clouds at 1000 feet AGL
Weather: no significant weather observed at this time

METAR text: DIAP 230730Z VRB02KT 7000 SCT010 27/26 Q1011 NOSIG
Conditions at: DIAP (ABIDJAN/PORT BOU, CI) observed 0730 UTC 23 January 2019
Temperature: 27.0°C (81°F)
Dewpoint: 26.0°C (79°F) [RH = 94%]
Pressure (altimeter): 29.85 inches Hg (1011.0 mb)
Winds: variable direction winds at 2 MPH (2 knots; 1.0 m/s)
Visibility: 4 miles ( 7 km)
Ceiling: at least 12,000 feet AGL
Clouds: scattered clouds at 1000 feet AGL
Weather: no significant weather observed at this time

METAR text: DIAP 230700Z VRB02KT 8000 FEW012 27/26 Q1011 NOSIG
Conditions at: DIAP (ABIDJAN/PORT BOU, CI) observed 0700 UTC 23 January 2019
Temperature: 27.0°C (81°F)
Dewpoint: 26.0°C (79°F) [RH = 94%]
Pressure (altimeter): 29.85 inches Hg (1011.0 mb)
Winds: variable direction winds at 2 MPH (2 knots; 1.0 m/s)
Visibility: 5 miles ( 8 km)
Ceiling: at least 12,000 feet AGL
Clouds: few clouds at 1200 feet AGL
Weather: no significant weather observed at this time

METAR text: DIAP 230630Z 22003KT 9000 FEW012 27/26 Q1011 NOSIG
Conditions at: DIAP (ABIDJAN/PORT BOU, CI) observed 0630 UTC 23 January 2019
Temperature: 27.0°C (81°F)
Dewpoint: 26.0°C (79°F) [RH = 94%]
Pressure (altimeter): 29.85 inches Hg (1011.0 mb)
Winds: from the SW (220 degrees) at 3 MPH (3 knots; 1.5 m/s)
Visibility: 6 miles ( 9 km)
Ceiling: at least 12,000 feet AGL
Clouds: few clouds at 1200 feet AGL
Weather: no significant weather observed at this time

METAR text: DIAP 230600Z 26005KT 9000 FEW012 27/26 Q1011 NOSIG
Conditions at: DIAP (ABIDJAN/PORT BOU, CI) observed 0600 UTC 23 January 2019
Temperature: 27.0°C (81°F)
Dewpoint: 26.0°C (79°F) [RH = 94%]
Pressure (altimeter): 29.85 inches Hg (1011.0 mb)
Winds: from the W (260 degrees) at 6 MPH (5 knots; 2.6 m/s)
Visibility: 6 miles ( 9 km)
Ceiling: at least 12,000 feet AGL
Clouds: few clouds at 1200 feet AGL
Weather: no significant weather observed at this time

METAR text: DIAP 230530Z 26005KT 9000 FEW012 27/26 Q1010 NOSIG
Conditions at: DIAP (ABIDJAN/PORT BOU, CI) observed 0530 UTC 23 January 2019
Temperature: 27.0°C (81°F)
Dewpoint: 26.0°C (79°F) [RH = 94%]
Pressure (altimeter): 29.82 inches Hg (1010.0 mb)
Winds: from the W (260 degrees) at 6 MPH (5 knots; 2.6 m/s)
Visibility: 6 miles ( 9 km)
Ceiling: at least 12,000 feet AGL
Clouds: few clouds at 1200 feet AGL
Weather: no significant weather observed at this time

METAR text: DIAP 230500Z 26004KT 9000 FEW012 27/26 Q1010 NOSIG
Conditions at: DIAP (ABIDJAN/PORT BOU, CI) observed 0500 UTC 23 January 2019
Temperature: 27.0°C (81°F)
Dewpoint: 26.0°C (79°F) [RH = 94%]
Pressure (altimeter): 29.82 inches Hg (1010.0 mb)
Winds: from the W (260 degrees) at 5 MPH (4 knots; 2.1 m/s)
Visibility: 6 miles ( 9 km)
Ceiling: at least 12,000 feet AGL
Clouds: few clouds at 1200 feet AGL
Weather: no significant weather observed at this time

METAR text: DIAP 230430Z 25004KT 9000 FEW012 27/26 Q1010 NOSIG
Conditions at: DIAP (ABIDJAN/PORT BOU, CI) observed 0430 UTC 23 January 2019
Temperature: 27.0°C (81°F)
Dewpoint: 26.0°C (79°F) [RH = 94%]
Pressure (altimeter): 29.82 inches Hg (1010.0 mb)
Winds: from the WSW (250 degrees) at 5 MPH (4 knots; 2.1 m/s)
Visibility: 6 miles ( 9 km)
Ceiling: at least 12,000 feet AGL
Clouds: few clouds at 1200 feet AGL
Weather: no significant weather observed at this time

METAR text: DIAP 230400Z 25004KT 9000 FEW012 27/26 Q1010 NOSIG
Conditions at: DIAP (ABIDJAN/PORT BOU, CI) observed 0400 UTC 23 January 2019
Temperature: 27.0°C (81°F)
Dewpoint: 26.0°C (79°F) [RH = 94%]
Pressure (altimeter): 29.82 inches Hg (1010.0 mb)
Winds: from the WSW (250 degrees) at 5 MPH (4 knots; 2.1 m/s)
Visibility: 6 miles ( 9 km)
Ceiling: at least 12,000 feet AGL
Clouds: few clouds at 1200 feet AGL
Weather: no significant weather observed at this time

METAR text: DIAP 230330Z 24004KT 9000 FEW012 27/26 Q1010 NOSIG
Conditions at: DIAP (ABIDJAN/PORT BOU, CI) observed 0330 UTC 23 January 2019
Temperature: 27.0°C (81°F)
Dewpoint: 26.0°C (79°F) [RH = 94%]
Pressure (altimeter): 29.82 inches Hg (1010.0 mb)
Winds: from the WSW (240 degrees) at 5 MPH (4 knots; 2.1 m/s)
Visibility: 6 miles ( 9 km)
Ceiling: at least 12,000 feet AGL
Clouds: few clouds at 1200 feet AGL
Weather: no significant weather observed at this time

METAR text: DIAP 230300Z 24005KT 9000 FEW012 27/26 Q1010 NOSIG
Conditions at: DIAP (ABIDJAN/PORT BOU, CI) observed 0300 UTC 23 January 2019
Temperature: 27.0°C (81°F)
Dewpoint: 26.0°C (79°F) [RH = 94%]
Pressure (altimeter): 29.82 inches Hg (1010.0 mb)
Winds: from the WSW (240 degrees) at 6 MPH (5 knots; 2.6 m/s)
Visibility: 6 miles ( 9 km)
Ceiling: at least 12,000 feet AGL
Clouds: few clouds at 1200 feet AGL
Weather: no significant weather observed at this time

METAR text: DIAP 230230Z 25004KT 9000 FEW012 27/26 Q1011 NOSIG
Conditions at: DIAP (ABIDJAN/PORT BOU, CI) observed 0230 UTC 23 January 2019
Temperature: 27.0°C (81°F)
Dewpoint: 26.0°C (79°F) [RH = 94%]
Pressure (altimeter): 29.85 inches Hg (1011.0 mb)
Winds: from the WSW (250 degrees) at 5 MPH (4 knots; 2.1 m/s)
Visibility: 6 miles ( 9 km)
Ceiling: at least 12,000 feet AGL
Clouds: few clouds at 1200 feet AGL
Weather: no significant weather observed at this time

METAR text: DIAP 230200Z 24004KT 9000 FEW012 27/26 Q1011 NOSIG
Conditions at: DIAP (ABIDJAN/PORT BOU, CI) observed 0200 UTC 23 January 2019
Temperature: 27.0°C (81°F)
Dewpoint: 26.0°C (79°F) [RH = 94%]
Pressure (altimeter): 29.85 inches Hg (1011.0 mb)
Winds: from the WSW (240 degrees) at 5 MPH (4 knots; 2.1 m/s)
Visibility: 6 miles ( 9 km)
Ceiling: at least 12,000 feet AGL
Clouds: few clouds at 1200 feet AGL
Weather: no significant weather observed at this time

METAR text: DIAP 230130Z 24003KT 9000 FEW012 27/26 Q1011 NOSIG
Conditions at: DIAP (ABIDJAN/PORT BOU, CI) observed 0130 UTC 23 January 2019
Temperature: 27.0°C (81°F)
Dewpoint: 26.0°C (79°F) [RH = 94%]
Pressure (altimeter): 29.85 inches Hg (1011.0 mb)
Winds: from the WSW (240 degrees) at 3 MPH (3 knots; 1.5 m/s)
Visibility: 6 miles ( 9 km)
Ceiling: at least 12,000 feet AGL
Clouds: few clouds at 1200 feet AGL
Weather: no significant weather observed at this time

METAR text: DIAP 230100Z 24003KT 190V260 9000 FEW012 27/26 Q1011 NOSIG
Conditions at: DIAP (ABIDJAN/PORT BOU, CI) observed 0100 UTC 23 January 2019
Temperature: 27.0°C (81°F)
Dewpoint: 26.0°C (79°F) [RH = 94%]
Pressure (altimeter): 29.85 inches Hg (1011.0 mb)
Winds: from the WSW (240 degrees) at 3 MPH (3 knots; 1.5 m/s)
Visibility: 6 miles ( 9 km)
Ceiling: at least 12,000 feet AGL
Clouds: few clouds at 1200 feet AGL
Weather: no significant weather observed at this time

METAR text: DIAP 230030Z 25003KT 9000 FEW012 27/26 Q1011 NOSIG
Conditions at: DIAP (ABIDJAN/PORT BOU, CI) observed 0030 UTC 23 January 2019
Temperature: 27.0°C (81°F)
Dewpoint: 26.0°C (79°F) [RH = 94%]
Pressure (altimeter): 29.85 inches Hg (1011.0 mb)
Winds: from the WSW (250 degrees) at 3 MPH (3 knots; 1.5 m/s)
Visibility: 6 miles ( 9 km)
Ceiling: at least 12,000 feet AGL
Clouds: few clouds at 1200 feet AGL
Weather: no significant weather observed at this time

METAR text: DIAP 230000Z 24005KT 200V280 9000 FEW012 27/26 Q1012 NOSIG
Conditions at: DIAP (ABIDJAN/PORT BOU, CI) observed 0000 UTC 23 January 2019
Temperature: 27.0°C (81°F)
Dewpoint: 26.0°C (79°F) [RH = 94%]
Pressure (altimeter): 29.88 inches Hg (1012.0 mb)
Winds: from the WSW (240 degrees) at 6 MPH (5 knots; 2.6 m/s)
Visibility: 6 miles ( 9 km)
Ceiling: at least 12,000 feet AGL
Clouds: few clouds at 1200 feet AGL
Weather: no significant weather observed at this time

METAR text: DIAP 222330Z 24004KT 9000 FEW012 28/26 Q1012 NOSIG
Conditions at: DIAP (ABIDJAN/PORT BOU, CI) observed 2330 UTC 22 January 2019
Temperature: 28.0°C (82°F)
Dewpoint: 26.0°C (79°F) [RH = 89%]
Pressure (altimeter): 29.88 inches Hg (1012.0 mb)
Winds: from the WSW (240 degrees) at 5 MPH (4 knots; 2.1 m/s)
Visibility: 6 miles ( 9 km)
Ceiling: at least 12,000 feet AGL
Clouds: few clouds at 1200 feet AGL
Weather: no significant weather observed at this time

METAR text: DIAP 222300Z 24004KT 190V260 9000 FEW012 28/26 Q1012 NOSIG
Conditions at: DIAP (ABIDJAN/PORT BOU, CI) observed 2300 UTC 22 January 2019
Temperature: 28.0°C (82°F)
Dewpoint: 26.0°C (79°F) [RH = 89%]
Pressure (altimeter): 29.88 inches Hg (1012.0 mb)
Winds: from the WSW (240 degrees) at 5 MPH (4 knots; 2.1 m/s)
Visibility: 6 miles ( 9 km)
Ceiling: at least 12,000 feet AGL
Clouds: few clouds at 1200 feet AGL
Weather: no significant weather observed at this time

METAR text: DIAP 222230Z 24004KT 9000 FEW012 28/26 Q1012 NOSIG
Conditions at: DIAP (ABIDJAN/PORT BOU, CI) observed 2230 UTC 22 January 2019
Temperature: 28.0°C (82°F)
Dewpoint: 26.0°C (79°F) [RH = 89%]
Pressure (altimeter): 29.88 inches Hg (1012.0 mb)
Winds: from the WSW (240 degrees) at 5 MPH (4 knots; 2.1 m/s)
Visibility: 6 miles ( 9 km)
Ceiling: at least 12,000 feet AGL
Clouds: few clouds at 1200 feet AGL
Weather: no significant weather observed at this time

METAR text: DIAP 222200Z 24005KT 9000 FEW012 28/26 Q1012 NOSIG
Conditions at: DIAP (ABIDJAN/PORT BOU, CI) observed 2200 UTC 22 January 2019
Temperature: 28.0°C (82°F)
Dewpoint: 26.0°C (79°F) [RH = 89%]
Pressure (altimeter): 29.88 inches Hg (1012.0 mb)
Winds: from the WSW (240 degrees) at 6 MPH (5 knots; 2.6 m/s)
Visibility: 6 miles ( 9 km)
Ceiling: at least 12,000 feet AGL
Clouds: few clouds at 1200 feet AGL
Weather: no significant weather observed at this time

METAR text: DIAP 222130Z 24006KT 9000 FEW012 28/26 Q1012 NOSIG
Conditions at: DIAP (ABIDJAN/PORT BOU, CI) observed 2130 UTC 22 January 2019
Temperature: 28.0°C (82°F)
Dewpoint: 26.0°C (79°F) [RH = 89%]
Pressure (altimeter): 29.88 inches Hg (1012.0 mb)
Winds: from the WSW (240 degrees) at 7 MPH (6 knots; 3.1 m/s)
Visibility: 6 miles ( 9 km)
Ceiling: at least 12,000 feet AGL
Clouds: few clouds at 1200 feet AGL
Weather: no significant weather observed at this time

METAR text: DIAP 222100Z 25005KT 9000 FEW012 28/26 Q1011 NOSIG
Conditions at: DIAP (ABIDJAN/PORT BOU, CI) observed 2100 UTC 22 January 2019
Temperature: 28.0°C (82°F)
Dewpoint: 26.0°C (79°F) [RH = 89%]
Pressure (altimeter): 29.85 inches Hg (1011.0 mb)
Winds: from the WSW (250 degrees) at 6 MPH (5 knots; 2.6 m/s)
Visibility: 6 miles ( 9 km)
Ceiling: at least 12,000 feet AGL
Clouds: few clouds at 1200 feet AGL
Weather: no significant weather observed at this time

METAR text: DIAP 222030Z 25006KT 9000 FEW012 28/26 Q1011 NOSIG
Conditions at: DIAP (ABIDJAN/PORT BOU, CI) observed 2030 UTC 22 January 2019
Temperature: 28.0°C (82°F)
Dewpoint: 26.0°C (79°F) [RH = 89%]
Pressure (altimeter): 29.85 inches Hg (1011.0 mb)
Winds: from the WSW (250 degrees) at 7 MPH (6 knots; 3.1 m/s)
Visibility: 6 miles ( 9 km)
Ceiling: at least 12,000 feet AGL
Clouds: few clouds at 1200 feet AGL
Weather: no significant weather observed at this time

METAR text: DIAP 222000Z 24006KT 210V270 9000 FEW012 28/26 Q1011 NOSIG
Conditions at: DIAP (ABIDJAN/PORT BOU, CI) observed 2000 UTC 22 January 2019
Temperature: 28.0°C (82°F)
Dewpoint: 26.0°C (79°F) [RH = 89%]
Pressure (altimeter): 29.85 inches Hg (1011.0 mb)
Winds: from the WSW (240 degrees) at 7 MPH (6 knots; 3.1 m/s)
Visibility: 6 miles ( 9 km)
Ceiling: at least 12,000 feet AGL
Clouds: few clouds at 1200 feet AGL
Weather: no significant weather observed at this time

METAR text: DIAP 221930Z 24007KT 9000 FEW012 28/26 Q1010 NOSIG
Conditions at: DIAP (ABIDJAN/PORT BOU, CI) observed 1930 UTC 22 January 2019
Temperature: 28.0°C (82°F)
Dewpoint: 26.0°C (79°F) [RH = 89%]
Pressure (altimeter): 29.82 inches Hg (1010.0 mb)
Winds: from the WSW (240 degrees) at 8 MPH (7 knots; 3.6 m/s)
Visibility: 6 miles ( 9 km)
Ceiling: at least 12,000 feet AGL
Clouds: few clouds at 1200 feet AGL
Weather: no significant weather observed at this time

METAR text: DIAP 221900Z 23008KT 9000 FEW012 28/26 Q1010 NOSIG
Conditions at: DIAP (ABIDJAN/PORT BOU, CI) observed 1900 UTC 22 January 2019
Temperature: 28.0°C (82°F)
Dewpoint: 26.0°C (79°F) [RH = 89%]
Pressure (altimeter): 29.82 inches Hg (1010.0 mb)
Winds: from the SW (230 degrees) at 9 MPH (8 knots; 4.1 m/s)
Visibility: 6 miles ( 9 km)
Ceiling: at least 12,000 feet AGL
Clouds: few clouds at 1200 feet AGL
Weather: no significant weather observed at this time

METAR text: DIAP 221830Z 23007KT 9999 FEW012 29/26 Q1010 NOSIG
Conditions at: DIAP (ABIDJAN/PORT BOU, CI) observed 1830 UTC 22 January 2019
Temperature: 29.0°C (84°F)
Dewpoint: 26.0°C (79°F) [RH = 84%]
Pressure (altimeter): 29.82 inches Hg (1010.0 mb)
Winds: from the SW (230 degrees) at 8 MPH (7 knots; 3.6 m/s)
Visibility: 6 or more miles (10+ km)
Ceiling: at least 12,000 feet AGL
Clouds: few clouds at 1200 feet AGL
Weather: no significant weather observed at this time

METAR text: DIAP 221800Z 23008KT 9999 FEW012 29/26 Q1010 NOSIG
Conditions at: DIAP (ABIDJAN/PORT BOU, CI) observed 1800 UTC 22 January 2019
Temperature: 29.0°C (84°F)
Dewpoint: 26.0°C (79°F) [RH = 84%]
Pressure (altimeter): 29.82 inches Hg (1010.0 mb)
Winds: from the SW (230 degrees) at 9 MPH (8 knots; 4.1 m/s)
Visibility: 6 or more miles (10+ km)
Ceiling: at least 12,000 feet AGL
Clouds: few clouds at 1200 feet AGL
Weather: no significant weather observed at this time

METAR text: DIAP 221730Z 23009KT 9999 FEW012 29/26 Q1010 NOSIG
Conditions at: DIAP (ABIDJAN/PORT BOU, CI) observed 1730 UTC 22 January 2019
Temperature: 29.0°C (84°F)
Dewpoint: 26.0°C (79°F) [RH = 84%]
Pressure (altimeter): 29.82 inches Hg (1010.0 mb)
Winds: from the SW (230 degrees) at 10 MPH (9 knots; 4.6 m/s)
Visibility: 6 or more miles (10+ km)
Ceiling: at least 12,000 feet AGL
Clouds: few clouds at 1200 feet AGL
Weather: no significant weather observed at this time

METAR text: DIAP 221700Z 23010KT 9999 FEW012 30/26 Q1010 NOSIG
Conditions at: DIAP (ABIDJAN/PORT BOU, CI) observed 1700 UTC 22 January 2019
Temperature: 30.0°C (86°F)
Dewpoint: 26.0°C (79°F) [RH = 79%]
Pressure (altimeter): 29.82 inches Hg (1010.0 mb)
Winds: from the SW (230 degrees) at 12 MPH (10 knots; 5.1 m/s)
Visibility: 6 or more miles (10+ km)
Ceiling: at least 12,000 feet AGL
Clouds: few clouds at 1200 feet AGL
Weather: no significant weather observed at this time

METAR text: DIAP 221630Z 23011KT 9999 FEW012 30/26 Q1010 NOSIG
Conditions at: DIAP (ABIDJAN/PORT BOU, CI) observed 1630 UTC 22 January 2019
Temperature: 30.0°C (86°F)
Dewpoint: 26.0°C (79°F) [RH = 79%]
Pressure (altimeter): 29.82 inches Hg (1010.0 mb)
Winds: from the SW (230 degrees) at 13 MPH (11 knots; 5.7 m/s)
Visibility: 6 or more miles (10+ km)
Ceiling: at least 12,000 feet AGL
Clouds: few clouds at 1200 feet AGL
Weather: no significant weather observed at this time

METAR text: DIAP 221600Z 23013KT 9999 FEW012 30/26 Q1009 NOSIG
Conditions at: DIAP (ABIDJAN/PORT BOU, CI) observed 1600 UTC 22 January 2019
Temperature: 30.0°C (86°F)
Dewpoint: 26.0°C (79°F) [RH = 79%]
Pressure (altimeter): 29.79 inches Hg (1009.0 mb)
Winds: from the SW (230 degrees) at 15 MPH (13 knots; 6.7 m/s)
Visibility: 6 or more miles (10+ km)
Ceiling: at least 12,000 feet AGL
Clouds: few clouds at 1200 feet AGL
Weather: no significant weather observed at this time

METAR text: DIAP 221530Z 22013KT 9999 FEW012 31/25 Q1009 NOSIG
Conditions at: DIAP (ABIDJAN/PORT BOU, CI) observed 1530 UTC 22 January 2019
Temperature: 31.0°C (88°F)
Dewpoint: 25.0°C (77°F) [RH = 71%]
Pressure (altimeter): 29.79 inches Hg (1009.0 mb)
Winds: from the SW (220 degrees) at 15 MPH (13 knots; 6.7 m/s)
Visibility: 6 or more miles (10+ km)
Ceiling: at least 12,000 feet AGL
Clouds: few clouds at 1200 feet AGL
Weather: no significant weather observed at this time

METAR text: DIAP 221500Z 23013KT 9999 FEW012 31/25 Q1010 NOSIG
Conditions at: DIAP (ABIDJAN/PORT BOU, CI) observed 1500 UTC 22 January 2019
Temperature: 31.0°C (88°F)
Dewpoint: 25.0°C (77°F) [RH = 71%]
Pressure (altimeter): 29.82 inches Hg (1010.0 mb)
Winds: from the SW (230 degrees) at 15 MPH (13 knots; 6.7 m/s)
Visibility: 6 or more miles (10+ km)
Ceiling: at least 12,000 feet AGL
Clouds: few clouds at 1200 feet AGL
Weather: no significant weather observed at this time

METAR text: DIAP 221430Z 23012KT 9999 FEW012 31/25 Q1010 NOSIG
Conditions at: DIAP (ABIDJAN/PORT BOU, CI) observed 1430 UTC 22 January 2019
Temperature: 31.0°C (88°F)
Dewpoint: 25.0°C (77°F) [RH = 71%]
Pressure (altimeter): 29.82 inches Hg (1010.0 mb)
Winds: from the SW (230 degrees) at 14 MPH (12 knots; 6.2 m/s)
Visibility: 6 or more miles (10+ km)
Ceiling: at least 12,000 feet AGL
Clouds: few clouds at 1200 feet AGL
Weather: no significant weather observed at this time

METAR text: DIAP 221400Z 23011KT 9999 FEW012 31/24 Q1010 NOSIG
Conditions at: DIAP (ABIDJAN/PORT BOU, CI) observed 1400 UTC 22 January 2019
Temperature: 31.0°C (88°F)
Dewpoint: 24.0°C (75°F) [RH = 66%]
Pressure (altimeter): 29.82 inches Hg (1010.0 mb)
Winds: from the SW (230 degrees) at 13 MPH (11 knots; 5.7 m/s)
Visibility: 6 or more miles (10+ km)
Ceiling: at least 12,000 feet AGL
Clouds: few clouds at 1200 feet AGL
Weather: no significant weather observed at this time

METAR text: DIAP 221330Z 24012KT 9999 FEW012 32/25 Q1011 NOSIG
Conditions at: DIAP (ABIDJAN/PORT BOU, CI) observed 1330 UTC 22 January 2019
Temperature: 32.0°C (90°F)
Dewpoint: 25.0°C (77°F) [RH = 67%]
Pressure (altimeter): 29.85 inches Hg (1011.0 mb)
Winds: from the WSW (240 degrees) at 14 MPH (12 knots; 6.2 m/s)
Visibility: 6 or more miles (10+ km)
Ceiling: at least 12,000 feet AGL
Clouds: few clouds at 1200 feet AGL
Weather: no significant weather observed at this time

METAR text: DIAP 221300Z 23014KT 9999 FEW012 31/25 Q1011 NOSIG
Conditions at: DIAP (ABIDJAN/PORT BOU, CI) observed 1300 UTC 22 January 2019
Temperature: 31.0°C (88°F)
Dewpoint: 25.0°C (77°F) [RH = 71%]
Pressure (altimeter): 29.85 inches Hg (1011.0 mb)
Winds: from the SW (230 degrees) at 16 MPH (14 knots; 7.2 m/s)
Visibility: 6 or more miles (10+ km)
Ceiling: at least 12,000 feet AGL
Clouds: few clouds at 1200 feet AGL
Weather: no significant weather observed at this time

METAR text: DIAP 221230Z 24011KT 9999 SCT012 32/25 Q1012 NOSIG
Conditions at: DIAP (ABIDJAN/PORT BOU, CI) observed 1230 UTC 22 January 2019
Temperature: 32.0°C (90°F)
Dewpoint: 25.0°C (77°F) [RH = 67%]
Pressure (altimeter): 29.88 inches Hg (1012.0 mb)
Winds: from the WSW (240 degrees) at 13 MPH (11 knots; 5.7 m/s)
Visibility: 6 or more miles (10+ km)
Ceiling: at least 12,000 feet AGL
Clouds: scattered clouds at 1200 feet AGL
Weather: no significant weather observed at this time

METAR text: DIAP 221200Z 24010KT 9999 SCT012 31/24 Q1012 NOSIG
Conditions at: DIAP (ABIDJAN/PORT BOU, CI) observed 1200 UTC 22 January 2019
Temperature: 31.0°C (88°F)
Dewpoint: 24.0°C (75°F) [RH = 66%]
Pressure (altimeter): 29.88 inches Hg (1012.0 mb)
Winds: from the WSW (240 degrees) at 12 MPH (10 knots; 5.1 m/s)
Visibility: 6 or more miles (10+ km)
Ceiling: at least 12,000 feet AGL
Clouds: scattered clouds at 1200 feet AGL
Weather: no significant weather observed at this time

METAR text: DIAP 221130Z 25011KT 9999 SCT012 31/24 Q1012 NOSIG
Conditions at: DIAP (ABIDJAN/PORT BOU, CI) observed 1130 UTC 22 January 2019
Temperature: 31.0°C (88°F)
Dewpoint: 24.0°C (75°F) [RH = 66%]
Pressure (altimeter): 29.88 inches Hg (1012.0 mb)
Winds: from the WSW (250 degrees) at 13 MPH (11 knots; 5.7 m/s)
Visibility: 6 or more miles (10+ km)
Ceiling: at least 12,000 feet AGL
Clouds: scattered clouds at 1200 feet AGL
Weather: no significant weather observed at this time

METAR text: DIAP 221100Z 24011KT 9999 SCT012 31/24 Q1013 NOSIG
Conditions at: DIAP (ABIDJAN/PORT BOU, CI) observed 1100 UTC 22 January 2019
Temperature: 31.0°C (88°F)
Dewpoint: 24.0°C (75°F) [RH = 66%]
Pressure (altimeter): 29.91 inches Hg (1013.0 mb)
Winds: from the WSW (240 degrees) at 13 MPH (11 knots; 5.7 m/s)
Visibility: 6 or more miles (10+ km)
Ceiling: at least 12,000 feet AGL
Clouds: scattered clouds at 1200 feet AGL
Weather: no significant weather observed at this time

METAR text: DIAP 221030Z 24009KT 9000 SCT012 31/25 Q1013 NOSIG
Conditions at: DIAP (ABIDJAN/PORT BOU, CI) observed 1030 UTC 22 January 2019
Temperature: 31.0°C (88°F)
Dewpoint: 25.0°C (77°F) [RH = 71%]
Pressure (altimeter): 29.91 inches Hg (1013.0 mb)
Winds: from the WSW (240 degrees) at 10 MPH (9 knots; 4.6 m/s)
Visibility: 6 miles ( 9 km)
Ceiling: at least 12,000 feet AGL
Clouds: scattered clouds at 1200 feet AGL
Weather: no significant weather observed at this time

METAR text: DIAP 221000Z 27005KT 9000 SCT012 30/25 Q1013 NOSIG
Conditions at: DIAP (ABIDJAN/PORT BOU, CI) observed 1000 UTC 22 January 2019
Temperature: 30.0°C (86°F)
Dewpoint: 25.0°C (77°F) [RH = 75%]
Pressure (altimeter): 29.91 inches Hg (1013.0 mb)
Winds: from the W (270 degrees) at 6 MPH (5 knots; 2.6 m/s)
Visibility: 6 miles ( 9 km)
Ceiling: at least 12,000 feet AGL
Clouds: scattered clouds at 1200 feet AGL
Weather: no significant weather observed at this time

METAR text: DIAP 220930Z 26007KT 240V300 9000 SCT012 30/26 Q1013 NOSIG
Conditions at: DIAP (ABIDJAN/PORT BOU, CI) observed 0930 UTC 22 January 2019
Temperature: 30.0°C (86°F)
Dewpoint: 26.0°C (79°F) [RH = 79%]
Pressure (altimeter): 29.91 inches Hg (1013.0 mb)
Winds: from the W (260 degrees) at 8 MPH (7 knots; 3.6 m/s)
Visibility: 6 miles ( 9 km)
Ceiling: at least 12,000 feet AGL
Clouds: scattered clouds at 1200 feet AGL
Weather: no significant weather observed at this time

METAR text: DIAP 220900Z 27006KT 240V300 9000 SCT012 29/26 Q1013 NOSIG
Conditions at: DIAP (ABIDJAN/PORT BOU, CI) observed 0900 UTC 22 January 2019
Temperature: 29.0°C (84°F)
Dewpoint: 26.0°C (79°F) [RH = 84%]
Pressure (altimeter): 29.91 inches Hg (1013.0 mb)
Winds: from the W (270 degrees) at 7 MPH (6 knots; 3.1 m/s)
Visibility: 6 miles ( 9 km)
Ceiling: at least 12,000 feet AGL
Clouds: scattered clouds at 1200 feet AGL
Weather: no significant weather observed at this time

METAR text: DIAP 220830Z 30004KT 270V330 9000 SCT012 28/26 Q1013 NOSIG
Conditions at: DIAP (ABIDJAN/PORT BOU, CI) observed 0830 UTC 22 January 2019
Temperature: 28.0°C (82°F)
Dewpoint: 26.0°C (79°F) [RH = 89%]
Pressure (altimeter): 29.91 inches Hg (1013.0 mb)
Winds: from the WNW (300 degrees) at 5 MPH (4 knots; 2.1 m/s)
Visibility: 6 miles ( 9 km)
Ceiling: at least 12,000 feet AGL
Clouds: scattered clouds at 1200 feet AGL
Weather: no significant weather observed at this time

METAR text: DIAP 220800Z 29003KT 9000 SCT012 28/26 Q1013 NOSIG
Conditions at: DIAP (ABIDJAN/PORT BOU, CI) observed 0800 UTC 22 January 2019
Temperature: 28.0°C (82°F)
Dewpoint: 26.0°C (79°F) [RH = 89%]
Pressure (altimeter): 29.91 inches Hg (1013.0 mb)
Winds: from the WNW (290 degrees) at 3 MPH (3 knots; 1.5 m/s)
Visibility: 6 miles ( 9 km)
Ceiling: at least 12,000 feet AGL
Clouds: scattered clouds at 1200 feet AGL
Weather: no significant weather observed at this time

METAR text: DIAP 220730Z 29003KT 250V320 9999 SCT012 27/26 Q1012 NOSIG
Conditions at: DIAP (ABIDJAN/PORT BOU, CI) observed 0730 UTC 22 January 2019
Temperature: 27.0°C (81°F)
Dewpoint: 26.0°C (79°F) [RH = 94%]
Pressure (altimeter): 29.88 inches Hg (1012.0 mb)
Winds: from the WNW (290 degrees) at 3 MPH (3 knots; 1.5 m/s)
Visibility: 6 or more miles (10+ km)
Ceiling: at least 12,000 feet AGL
Clouds: scattered clouds at 1200 feet AGL
Weather: no significant weather observed at this time

METAR text: DIAP 220700Z 26006KT 9999 SCT012 27/26 Q1012 NOSIG
Conditions at: DIAP (ABIDJAN/PORT BOU, CI) observed 0700 UTC 22 January 2019
Temperature: 27.0°C (81°F)
Dewpoint: 26.0°C (79°F) [RH = 94%]
Pressure (altimeter): 29.88 inches Hg (1012.0 mb)
Winds: from the W (260 degrees) at 7 MPH (6 knots; 3.1 m/s)
Visibility: 6 or more miles (10+ km)
Ceiling: at least 12,000 feet AGL
Clouds: scattered clouds at 1200 feet AGL
Weather: no significant weather observed at this time

METAR text: DIAP 220630Z 25004KT 9999 SCT012 27/26 Q1011 NOSIG
Conditions at: DIAP (ABIDJAN/PORT BOU, CI) observed 0630 UTC 22 January 2019
Temperature: 27.0°C (81°F)
Dewpoint: 26.0°C (79°F) [RH = 94%]
Pressure (altimeter): 29.85 inches Hg (1011.0 mb)
Winds: from the WSW (250 degrees) at 5 MPH (4 knots; 2.1 m/s)
Visibility: 6 or more miles (10+ km)
Ceiling: at least 12,000 feet AGL
Clouds: scattered clouds at 1200 feet AGL
Weather: no significant weather observed at this time

METAR text: DIAP 220600Z 24004KT 9999 SCT012 27/26 Q1011 NOSIG
Conditions at: DIAP (ABIDJAN/PORT BOU, CI) observed 0600 UTC 22 January 2019
Temperature: 27.0°C (81°F)
Dewpoint: 26.0°C (79°F) [RH = 94%]
Pressure (altimeter): 29.85 inches Hg (1011.0 mb)
Winds: from the WSW (240 degrees) at 5 MPH (4 knots; 2.1 m/s)
Visibility: 6 or more miles (10+ km)
Ceiling: at least 12,000 feet AGL
Clouds: scattered clouds at 1200 feet AGL
Weather: no significant weather observed at this time

METAR text: DIAP 220530Z 23004KT 9999 FEW010 27/26 Q1011 NOSIG
Conditions at: DIAP (ABIDJAN/PORT BOU, CI) observed 0530 UTC 22 January 2019
Temperature: 27.0°C (81°F)
Dewpoint: 26.0°C (79°F) [RH = 94%]
Pressure (altimeter): 29.85 inches Hg (1011.0 mb)
Winds: from the SW (230 degrees) at 5 MPH (4 knots; 2.1 m/s)
Visibility: 6 or more miles (10+ km)
Ceiling: at least 12,000 feet AGL
Clouds: few clouds at 1000 feet AGL
Weather: no significant weather observed at this time

METAR text: DIAP 220500Z 24004KT 9999 FEW010 27/26 Q1011 NOSIG
Conditions at: DIAP (ABIDJAN/PORT BOU, CI) observed 0500 UTC 22 January 2019
Temperature: 27.0°C (81°F)
Dewpoint: 26.0°C (79°F) [RH = 94%]
Pressure (altimeter): 29.85 inches Hg (1011.0 mb)
Winds: from the WSW (240 degrees) at 5 MPH (4 knots; 2.1 m/s)
Visibility: 6 or more miles (10+ km)
Ceiling: at least 12,000 feet AGL
Clouds: few clouds at 1000 feet AGL
Weather: no significant weather observed at this time

METAR text: DIAP 220430Z 25004KT 9999 FEW010 27/26 Q1011 NOSIG
Conditions at: DIAP (ABIDJAN/PORT BOU, CI) observed 0430 UTC 22 January 2019
Temperature: 27.0°C (81°F)
Dewpoint: 26.0°C (79°F) [RH = 94%]
Pressure (altimeter): 29.85 inches Hg (1011.0 mb)
Winds: from the WSW (250 degrees) at 5 MPH (4 knots; 2.1 m/s)
Visibility: 6 or more miles (10+ km)
Ceiling: at least 12,000 feet AGL
Clouds: few clouds at 1000 feet AGL
Weather: no significant weather observed at this time

METAR text: DIAP 220400Z 24004KT 9999 FEW010 27/26 Q1011 NOSIG
Conditions at: DIAP (ABIDJAN/PORT BOU, CI) observed 0400 UTC 22 January 2019
Temperature: 27.0°C (81°F)
Dewpoint: 26.0°C (79°F) [RH = 94%]
Pressure (altimeter): 29.85 inches Hg (1011.0 mb)
Winds: from the WSW (240 degrees) at 5 MPH (4 knots; 2.1 m/s)
Visibility: 6 or more miles (10+ km)
Ceiling: at least 12,000 feet AGL
Clouds: few clouds at 1000 feet AGL
Weather: no significant weather observed at this time

METAR text: DIAP 220330Z 24004KT 9999 SCT010 27/26 Q1011 NOSIG
Conditions at: DIAP (ABIDJAN/PORT BOU, CI) observed 0330 UTC 22 January 2019
Temperature: 27.0°C (81°F)
Dewpoint: 26.0°C (79°F) [RH = 94%]
Pressure (altimeter): 29.85 inches Hg (1011.0 mb)
Winds: from the WSW (240 degrees) at 5 MPH (4 knots; 2.1 m/s)
Visibility: 6 or more miles (10+ km)
Ceiling: at least 12,000 feet AGL
Clouds: scattered clouds at 1000 feet AGL
Weather: no significant weather observed at this time

METAR text: DIAP 220321Z 24004KT 9999 FEW010 27/26 Q1011 NOSIG
Conditions at: DIAP (ABIDJAN/PORT BOU, CI) observed 0321 UTC 22 January 2019
Temperature: 27.0°C (81°F)
Dewpoint: 26.0°C (79°F) [RH = 94%]
Pressure (altimeter): 29.85 inches Hg (1011.0 mb)
Winds: from the WSW (240 degrees) at 5 MPH (4 knots; 2.1 m/s)
Visibility: 6 or more miles (10+ km)
Ceiling: at least 12,000 feet AGL
Clouds: few clouds at 1000 feet AGL
Weather: no significant weather observed at this time

METAR text: DIAP 220300Z 24004KT 9999 FEW010 27/26 Q1011 NOSIG
Conditions at: DIAP (ABIDJAN/PORT BOU, CI) observed 0300 UTC 22 January 2019
Temperature: 27.0°C (81°F)
Dewpoint: 26.0°C (79°F) [RH = 94%]
Pressure (altimeter): 29.85 inches Hg (1011.0 mb)
Winds: from the WSW (240 degrees) at 5 MPH (4 knots; 2.1 m/s)
Visibility: 6 or more miles (10+ km)
Ceiling: at least 12,000 feet AGL
Clouds: few clouds at 1000 feet AGL
Weather: no significant weather observed at this time

METAR text: DIAP 220230Z 26004KT 9999 SCT010 27/26 Q1011 NOSIG
Conditions at: DIAP (ABIDJAN/PORT BOU, CI) observed 0230 UTC 22 January 2019
Temperature: 27.0°C (81°F)
Dewpoint: 26.0°C (79°F) [RH = 94%]
Pressure (altimeter): 29.85 inches Hg (1011.0 mb)
Winds: from the W (260 degrees) at 5 MPH (4 knots; 2.1 m/s)
Visibility: 6 or more miles (10+ km)
Ceiling: at least 12,000 feet AGL
Clouds: scattered clouds at 1000 feet AGL
Weather: no significant weather observed at this time

METAR text: DIAP 220200Z 25006KT 9999 SCT010 27/26 Q1011 NOSIG
Conditions at: DIAP (ABIDJAN/PORT BOU, CI) observed 0200 UTC 22 January 2019
Temperature: 27.0°C (81°F)
Dewpoint: 26.0°C (79°F) [RH = 94%]
Pressure (altimeter): 29.85 inches Hg (1011.0 mb)
Winds: from the WSW (250 degrees) at 7 MPH (6 knots; 3.1 m/s)
Visibility: 6 or more miles (10+ km)
Ceiling: at least 12,000 feet AGL
Clouds: scattered clouds at 1000 feet AGL
Weather: no significant weather observed at this time

METAR text: DIAP 220130Z 25005KT 9999 FEW012 27/26 Q1012 NOSIG
Conditions at: DIAP (ABIDJAN/PORT BOU, CI) observed 0130 UTC 22 January 2019
Temperature: 27.0°C (81°F)
Dewpoint: 26.0°C (79°F) [RH = 94%]
Pressure (altimeter): 29.88 inches Hg (1012.0 mb)
Winds: from the WSW (250 degrees) at 6 MPH (5 knots; 2.6 m/s)
Visibility: 6 or more miles (10+ km)
Ceiling: at least 12,000 feet AGL
Clouds: few clouds at 1200 feet AGL
Weather: no significant weather observed at this time

Forecast for: DIAP (ABIDJAN/PORT BOU, CI)
Text: TAF DIAP 231100Z 2312/2418 28006KT 8000 SCT012
Forecast period: 1200 UTC 23 January 2019 to 1800 UTC 24 January 2019
Forecast type: FROM: standard forecast or significant change
Winds: from the W (280 degrees) at 7 MPH (6 knots; 3.1 m/s)
Visibility: 5 miles (8 km)
Ceiling: at least 12,000 feet AGL
Clouds: scattered clouds at 1200 feet AGL
Weather: no significant weather forecast for this period
Text: TEMPO 2316/2322 BKN012
Forecast period: 1600 to 2200 UTC 23 January 2019
Forecast type: TEMPORARY: The following changes expected for less than half the time period
Visibility: missing
Ceiling: 1200 feet AGL
Clouds: broken clouds at 1200 feet AGL
Weather: no significant weather forecast for this period